createdAt,value
2022-08-30T00:02:04.961Z,3.70
2022-08-30T00:07:07.035Z,2.85
2022-08-30T00:12:09.791Z,2.72
2022-08-30T00:17:11.778Z,3.53
2022-08-30T00:22:13.787Z,2.90
2022-08-30T00:27:15.995Z,4.15
2022-08-30T00:32:21.471Z,6.88
2022-08-30T00:37:23.731Z,4.60
2022-08-30T00:42:26.670Z,3.22
2022-08-30T00:47:28.781Z,5.30
2022-08-30T00:52:30.910Z,3.05
2022-08-30T00:57:34.743Z,4.07
2022-08-30T01:02:37.093Z,3.80
2022-08-30T01:07:40.111Z,3.88
2022-08-30T01:12:43.688Z,3.30
2022-08-30T01:17:47.982Z,2.72
2022-08-30T01:22:50.802Z,3.38
2022-08-30T01:27:59.227Z,3.80
2022-08-30T01:33:04.298Z,3.30
2022-08-30T01:38:06.651Z,3.75
2022-08-30T01:43:08.999Z,3.58
2022-08-30T01:48:13.063Z,3.97
2022-08-30T01:53:15.964Z,3.10
2022-08-30T01:58:18.341Z,4.75
2022-08-30T02:03:20.468Z,2.50
2022-08-30T02:08:22.654Z,4.65
2022-08-30T02:13:25.039Z,4.35
2022-08-30T02:18:28.065Z,3.50
2022-08-30T02:23:31.515Z,3.08
2022-08-30T02:28:33.908Z,5.15
2022-08-30T02:33:36.096Z,3.00
2022-08-30T02:38:42.594Z,3.70
2022-08-30T02:43:44.722Z,5.90
2022-08-30T02:48:46.880Z,3.67
2022-08-30T02:53:49.392Z,3.10
2022-08-30T02:58:51.582Z,4.65
2022-08-30T03:03:53.930Z,3.85
2022-08-30T03:08:56.097Z,2.83
2022-08-30T03:13:58.147Z,4.35
2022-08-30T03:19:00.188Z,5.25
2022-08-30T03:24:02.374Z,5.57
2022-08-30T03:29:04.460Z,2.90
2022-08-30T03:34:06.608Z,3.50
2022-08-30T03:39:09.772Z,4.00
2022-08-30T03:44:16.142Z,4.65
2022-08-30T03:49:18.727Z,3.45
2022-08-30T03:54:20.963Z,3.30
2022-08-30T03:59:23.212Z,3.63
2022-08-30T04:04:25.954Z,4.05
2022-08-30T04:09:27.946Z,2.67
2022-08-30T04:14:30.055Z,5.10
2022-08-30T04:19:32.325Z,3.45
2022-08-30T04:24:34.735Z,3.70
2022-08-30T04:29:37.229Z,2.20
2022-08-30T04:34:39.298Z,3.88
2022-08-30T04:39:42.781Z,4.15
2022-08-30T04:44:44.763Z,6.63
2022-08-30T04:49:47.007Z,2.97
2022-08-30T04:54:49.084Z,4.80
2022-08-30T04:59:51.500Z,4.82
2022-08-30T05:05:14.382Z,3.47
2022-08-30T05:10:16.747Z,3.58
2022-08-30T05:15:18.860Z,4.97
2022-08-30T05:20:21.083Z,4.10
2022-08-30T05:25:27.684Z,3.65
2022-08-30T05:30:33.823Z,5.13
2022-08-30T05:35:35.836Z,3.13
2022-08-30T05:40:41.671Z,4.80
2022-08-30T05:45:43.771Z,3.00
2022-08-30T05:50:45.762Z,4.32
2022-08-30T05:55:47.759Z,2.95
2022-08-30T06:00:49.882Z,5.72
2022-08-30T06:05:52.251Z,3.83
2022-08-30T06:10:55.378Z,4.47
2022-08-30T06:15:57.543Z,3.35
2022-08-30T06:20:59.712Z,5.03
2022-08-30T06:26:06.757Z,5.05
2022-08-30T06:31:11.374Z,4.10
2022-08-30T06:36:16.784Z,5.18
2022-08-30T06:41:22.643Z,4.18
2022-08-30T06:46:28.918Z,4.68
2022-08-30T06:51:35.133Z,5.13
2022-08-30T06:56:37.803Z,5.60
2022-08-30T07:01:40.104Z,5.53
2022-08-30T07:06:42.192Z,5.28
2022-08-30T07:11:44.888Z,3.45
2022-08-30T07:16:47.034Z,5.30
2022-08-30T07:21:53.455Z,5.80
2022-08-30T07:26:55.748Z,5.13
2022-08-30T07:31:57.759Z,4.68
2022-08-30T07:36:59.799Z,3.25
2022-08-30T07:42:02.450Z,3.40
2022-08-30T07:47:05.835Z,5.40
2022-08-30T07:52:07.941Z,3.97
2022-08-30T07:57:10.087Z,4.15
2022-08-30T08:02:12.148Z,3.45
2022-08-30T08:07:14.338Z,6.63
2022-08-30T08:12:16.412Z,4.70
2022-08-30T08:17:18.447Z,4.03
2022-08-30T08:22:21.611Z,3.90
2022-08-30T08:27:24.970Z,5.50
2022-08-30T08:32:27.027Z,3.00
2022-08-30T08:37:29.147Z,3.42
2022-08-30T08:42:51.569Z,3.20
2022-08-30T08:53:45.464Z,4.30
2022-08-30T08:58:53.710Z,2.70
2022-08-30T09:03:58.674Z,3.25
2022-08-30T09:09:01.019Z,2.47
2022-08-30T09:14:09.059Z,2.90
2022-08-30T09:19:28.470Z,3.00
2022-08-30T09:25:01.891Z,4.75
2022-08-30T09:35:49.361Z,3.33
2022-08-30T09:41:01.046Z,3.13
2022-08-30T09:46:03.047Z,2.30
2022-08-30T09:51:11.626Z,2.97
2022-08-30T09:56:38.044Z,3.70
2022-08-30T10:01:46.364Z,2.75
2022-08-30T10:07:06.842Z,3.20
2022-08-30T10:12:33.789Z,2.90
2022-08-30T10:17:53.031Z,2.15
2022-08-30T10:23:07.264Z,2.53
2022-08-30T10:28:27.583Z,1.52
2022-08-30T10:33:52.781Z,2.38
2022-08-30T10:38:56.694Z,2.78
2022-08-30T10:44:06.658Z,2.38
2022-08-30T10:49:17.477Z,2.42
2022-08-30T10:54:51.986Z,2.15
2022-08-30T11:00:00.905Z,3.53
2022-08-30T11:05:17.323Z,3.47
2022-08-30T11:10:37.299Z,2.55
2022-08-30T11:15:59.977Z,2.40
2022-08-30T11:21:38.735Z,3.88
2022-08-30T11:26:47.056Z,2.78
2022-08-30T11:31:49.075Z,2.65
2022-08-30T11:36:51.036Z,7.03
2022-08-30T11:42:22.237Z,2.65
2022-08-30T11:47:47.737Z,2.97
2022-08-30T11:52:57.056Z,5.10
2022-08-30T11:58:05.194Z,4.68
2022-08-30T12:03:33.215Z,5.20
2022-08-30T12:08:56.559Z,3.10
2022-08-30T12:14:09.031Z,4.03
2022-08-30T12:19:20.780Z,2.55
2022-08-30T12:24:32.716Z,4.00
2022-08-30T12:29:35.142Z,3.95
2022-08-30T12:34:46.012Z,3.90
2022-08-30T12:39:53.398Z,2.83
2022-08-30T12:44:59.316Z,5.00
2022-08-30T12:50:01.620Z,4.65
2022-08-30T12:55:17.128Z,3.38
2022-08-30T13:00:33.672Z,3.92
2022-08-30T13:11:08.102Z,3.72
2022-08-30T13:16:26.320Z,5.03
2022-08-30T13:21:33.755Z,6.05
2022-08-30T13:26:37.997Z,5.13
2022-08-30T13:31:41.968Z,6.75
2022-08-30T13:36:53.268Z,6.13
2022-08-30T13:41:56.123Z,5.40
2022-08-30T13:47:37.007Z,6.90
2022-08-30T13:52:39.724Z,5.05
2022-08-30T13:57:57.407Z,3.83
2022-08-30T14:03:00.234Z,4.53
2022-08-30T14:08:02.674Z,6.55
2022-08-30T14:13:10.197Z,5.25
2022-08-30T14:18:17.632Z,4.97
2022-08-30T14:23:20.838Z,7.88
2022-08-30T14:28:23.649Z,7.70
2022-08-30T14:33:26.342Z,3.88
2022-08-30T14:38:28.602Z,4.32
2022-08-30T14:43:30.640Z,6.78
2022-08-30T14:48:32.990Z,4.85
2022-08-30T14:53:34.890Z,7.07
2022-08-30T14:58:38.852Z,5.00
2022-08-30T15:03:42.180Z,4.15
2022-08-30T15:08:47.711Z,5.65
2022-08-30T15:13:52.999Z,5.97
2022-08-30T15:18:56.934Z,4.78
2022-08-30T15:24:02.355Z,8.50
2022-08-30T15:29:04.681Z,6.97
2022-08-30T15:34:08.626Z,9.73
2022-08-30T15:39:12.811Z,5.32
2022-08-30T15:44:16.585Z,8.82
2022-08-30T15:49:21.218Z,6.90
2022-08-30T15:54:24.103Z,8.20
2022-08-30T15:59:31.057Z,5.93
2022-08-30T16:04:33.084Z,6.28
2022-08-30T16:09:36.778Z,4.72
2022-08-30T16:14:40.497Z,6.43
2022-08-30T16:19:43.572Z,7.68
2022-08-30T16:24:46.658Z,6.65
2022-08-30T16:29:50.193Z,5.25
2022-08-30T16:34:52.332Z,7.20
2022-08-30T16:39:54.282Z,7.25
2022-08-30T16:44:57.374Z,4.20
2022-08-30T16:50:00.788Z,6.78
2022-08-30T16:55:02.792Z,5.28
2022-08-30T17:00:13.366Z,9.07
2022-08-30T17:05:16.011Z,16.90
2022-08-30T17:10:19.223Z,8.63
2022-08-30T17:15:27.345Z,13.25
2022-08-30T17:20:31.889Z,5.93
2022-08-30T17:25:36.952Z,10.00
2022-08-30T17:30:39.177Z,10.10
2022-08-30T17:35:42.447Z,4.57
2022-08-30T17:40:44.531Z,6.10
2022-08-30T17:45:46.618Z,4.93
2022-08-30T17:50:56.218Z,9.48
2022-08-30T17:55:58.723Z,7.68
2022-08-30T18:01:14.386Z,7.85
2022-08-30T18:06:16.573Z,7.88
2022-08-30T18:11:18.640Z,7.93
2022-08-30T18:16:20.810Z,5.82
2022-08-30T18:21:23.753Z,7.97
2022-08-30T18:26:28.029Z,6.38
2022-08-30T18:31:30.563Z,7.30
2022-08-30T18:36:33.413Z,6.25
2022-08-30T18:41:42.988Z,10.10
2022-08-30T18:46:56.066Z,8.20
2022-08-30T18:52:10.071Z,8.85
2022-08-30T18:57:12.601Z,6.32
2022-08-30T19:02:16.783Z,9.20
2022-08-30T19:07:19.712Z,6.07
2022-08-30T19:12:22.951Z,10.38
2022-08-30T19:17:26.604Z,8.57
2022-08-30T19:22:39.854Z,7.45
2022-08-30T19:27:51.846Z,9.10
2022-08-30T19:32:54.185Z,9.00
2022-08-30T19:37:56.461Z,7.95
2022-08-30T19:42:59.320Z,6.40
2022-08-30T19:48:02.090Z,8.43
2022-08-30T19:53:04.286Z,5.10
2022-08-30T19:58:06.396Z,5.28
2022-08-30T20:03:08.471Z,7.43
2022-08-30T20:08:11.766Z,9.57
2022-08-30T20:13:14.113Z,8.88
2022-08-30T20:18:16.609Z,7.60
2022-08-30T20:23:22.788Z,12.13
2022-08-30T20:28:27.722Z,4.97
2022-08-30T20:33:29.758Z,7.45
2022-08-30T20:38:32.444Z,7.80
2022-08-30T20:43:34.389Z,5.80
2022-08-30T20:48:36.838Z,6.38
2022-08-30T20:53:39.044Z,8.38
2022-08-30T20:58:42.499Z,6.57
2022-08-30T21:03:46.856Z,5.68
2022-08-30T21:08:48.996Z,6.15
2022-08-30T21:13:50.994Z,6.50
2022-08-30T21:18:53.531Z,8.95
2022-08-30T21:24:00.033Z,9.18
2022-08-30T21:29:02.141Z,8.15
2022-08-30T21:34:04.782Z,7.03
2022-08-30T21:39:07.846Z,6.05
2022-08-30T21:44:20.731Z,5.63
2022-08-30T21:49:24.448Z,8.15
2022-08-30T21:54:28.317Z,9.30
2022-08-30T21:59:34.139Z,5.82
2022-08-30T22:04:36.147Z,6.53
2022-08-30T22:09:38.358Z,7.75
2022-08-30T22:14:40.429Z,6.00
2022-08-30T22:19:42.816Z,6.50
2022-08-30T22:24:44.838Z,9.15
2022-08-30T22:29:47.261Z,6.75
2022-08-30T22:34:50.330Z,8.18
2022-08-30T22:39:52.528Z,6.05
2022-08-30T22:44:54.583Z,8.50
2022-08-30T22:49:56.818Z,6.85
2022-08-30T22:54:59.361Z,8.98
2022-08-30T23:00:04.959Z,8.27
2022-08-30T23:05:07.290Z,6.53
2022-08-30T23:10:10.513Z,6.53
2022-08-30T23:15:15.629Z,10.15
2022-08-30T23:20:18.004Z,7.65
2022-08-30T23:25:41.677Z,6.40
2022-08-30T23:31:04.833Z,10.05
2022-08-30T23:36:30.109Z,8.15
2022-08-30T23:41:50.664Z,6.95
2022-08-30T23:47:11.190Z,9.55
2022-08-30T23:52:32.093Z,10.63
2022-08-30T23:57:53.031Z,9.70
